sensor_id;sensor_type;location;lat;lon;timestamp;temperature;humidity
12967;DHT22;6548;49.996;8.238;2024-02-21T00:00:55;8.60;99.90
12967;DHT22;6548;49.996;8.238;2024-02-21T00:03:20;8.60;99.90
12967;DHT22;6548;49.996;8.238;2024-02-21T00:05:46;8.60;99.90
12967;DHT22;6548;49.996;8.238;2024-02-21T00:08:11;8.60;99.90
12967;DHT22;6548;49.996;8.238;2024-02-21T00:10:37;8.60;99.90
12967;DHT22;6548;49.996;8.238;2024-02-21T00:13:03;8.60;99.90
12967;DHT22;6548;49.996;8.238;2024-02-21T00:15:29;8.60;99.90
12967;DHT22;6548;49.996;8.238;2024-02-21T00:17:54;8.60;99.90
12967;DHT22;6548;49.996;8.238;2024-02-21T00:20:20;8.60;99.90
12967;DHT22;6548;49.996;8.238;2024-02-21T00:22:46;8.60;99.90
12967;DHT22;6548;49.996;8.238;2024-02-21T00:25:11;8.60;99.90
12967;DHT22;6548;49.996;8.238;2024-02-21T00:27:37;8.60;99.90
12967;DHT22;6548;49.996;8.238;2024-02-21T00:30:03;8.60;99.90
12967;DHT22;6548;49.996;8.238;2024-02-21T00:32:29;8.50;99.90
12967;DHT22;6548;49.996;8.238;2024-02-21T00:34:54;8.50;99.90
12967;DHT22;6548;49.996;8.238;2024-02-21T00:37:20;8.40;99.90
12967;DHT22;6548;49.996;8.238;2024-02-21T00:39:46;8.40;99.90
12967;DHT22;6548;49.996;8.238;2024-02-21T00:42:11;8.40;99.90
12967;DHT22;6548;49.996;8.238;2024-02-21T00:44:37;8.40;99.90
12967;DHT22;6548;49.996;8.238;2024-02-21T00:47:02;8.40;99.90
12967;DHT22;6548;49.996;8.238;2024-02-21T00:49:28;8.40;99.90
12967;DHT22;6548;49.996;8.238;2024-02-21T00:51:53;8.40;99.90
12967;DHT22;6548;49.996;8.238;2024-02-21T00:54:19;8.40;99.90
12967;DHT22;6548;49.996;8.238;2024-02-21T00:56:44;8.40;99.90
12967;DHT22;6548;49.996;8.238;2024-02-21T00:59:10;8.40;99.90
12967;DHT22;6548;49.996;8.238;2024-02-21T01:01:35;8.40;99.90
12967;DHT22;6548;49.996;8.238;2024-02-21T01:04:01;8.40;99.90
12967;DHT22;6548;49.996;8.238;2024-02-21T01:06:26;8.40;99.90
12967;DHT22;6548;49.996;8.238;2024-02-21T01:08:52;8.40;99.90
12967;DHT22;6548;49.996;8.238;2024-02-21T01:11:18;8.40;99.90
12967;DHT22;6548;49.996;8.238;2024-02-21T01:13:44;8.40;99.90
12967;DHT22;6548;49.996;8.238;2024-02-21T01:16:09;8.40;99.90
12967;DHT22;6548;49.996;8.238;2024-02-21T01:18:37;8.40;99.90
12967;DHT22;6548;49.996;8.238;2024-02-21T01:21:03;8.40;99.90
12967;DHT22;6548;49.996;8.238;2024-02-21T01:23:32;8.40;99.90
12967;DHT22;6548;49.996;8.238;2024-02-21T01:25:58;8.40;99.90
12967;DHT22;6548;49.996;8.238;2024-02-21T01:28:23;8.40;99.90
12967;DHT22;6548;49.996;8.238;2024-02-21T01:30:49;8.40;99.90
12967;DHT22;6548;49.996;8.238;2024-02-21T01:33:14;8.40;99.90
12967;DHT22;6548;49.996;8.238;2024-02-21T01:35:40;8.40;99.90
12967;DHT22;6548;49.996;8.238;2024-02-21T01:38:05;8.40;99.90
12967;DHT22;6548;49.996;8.238;2024-02-21T01:40:31;8.40;99.90
12967;DHT22;6548;49.996;8.238;2024-02-21T01:42:56;8.40;99.90
12967;DHT22;6548;49.996;8.238;2024-02-21T01:45:22;8.40;99.90
12967;DHT22;6548;49.996;8.238;2024-02-21T01:47:49;8.30;99.90
12967;DHT22;6548;49.996;8.238;2024-02-21T01:50:15;8.40;99.90
12967;DHT22;6548;49.996;8.238;2024-02-21T01:52:43;8.40;99.90
12967;DHT22;6548;49.996;8.238;2024-02-21T01:55:13;8.30;99.90
12967;DHT22;6548;49.996;8.238;2024-02-21T01:57:40;8.30;99.90
12967;DHT22;6548;49.996;8.238;2024-02-21T02:00:07;8.30;99.90
12967;DHT22;6548;49.996;8.238;2024-02-21T02:02:33;8.30;99.90
12967;DHT22;6548;49.996;8.238;2024-02-21T02:04:59;8.20;99.90
12967;DHT22;6548;49.996;8.238;2024-02-21T02:07:26;8.20;99.90
12967;DHT22;6548;49.996;8.238;2024-02-21T02:09:51;8.20;99.90
12967;DHT22;6548;49.996;8.238;2024-02-21T02:12:17;8.20;99.90
12967;DHT22;6548;49.996;8.238;2024-02-21T02:14:42;8.10;99.90
12967;DHT22;6548;49.996;8.238;2024-02-21T02:17:08;8.10;99.90
12967;DHT22;6548;49.996;8.238;2024-02-21T02:19:34;8.10;99.90
12967;DHT22;6548;49.996;8.238;2024-02-21T02:22:13;8.10;99.90
12967;DHT22;6548;49.996;8.238;2024-02-21T02:24:40;8.10;99.90
12967;DHT22;6548;49.996;8.238;2024-02-21T02:27:06;8.10;99.90
12967;DHT22;6548;49.996;8.238;2024-02-21T02:29:32;8.10;99.90
12967;DHT22;6548;49.996;8.238;2024-02-21T02:31:58;8.10;99.90
12967;DHT22;6548;49.996;8.238;2024-02-21T02:34:23;8.10;99.90
12967;DHT22;6548;49.996;8.238;2024-02-21T02:36:49;8.10;99.90
12967;DHT22;6548;49.996;8.238;2024-02-21T02:39:15;8.10;99.90
12967;DHT22;6548;49.996;8.238;2024-02-21T02:41:40;8.10;99.90
12967;DHT22;6548;49.996;8.238;2024-02-21T02:44:06;8.10;99.90
12967;DHT22;6548;49.996;8.238;2024-02-21T02:46:31;8.00;99.90
12967;DHT22;6548;49.996;8.238;2024-02-21T02:48:57;8.00;99.90
12967;DHT22;6548;49.996;8.238;2024-02-21T02:51:22;8.00;99.90
12967;DHT22;6548;49.996;8.238;2024-02-21T02:53:48;8.00;99.90
12967;DHT22;6548;49.996;8.238;2024-02-21T02:56:16;8.00;99.90
12967;DHT22;6548;49.996;8.238;2024-02-21T02:58:43;8.00;99.90
12967;DHT22;6548;49.996;8.238;2024-02-21T03:01:09;7.90;99.90
12967;DHT22;6548;49.996;8.238;2024-02-21T03:03:35;8.00;99.90
12967;DHT22;6548;49.996;8.238;2024-02-21T03:06:00;7.90;99.90
12967;DHT22;6548;49.996;8.238;2024-02-21T03:08:26;7.90;99.90
12967;DHT22;6548;49.996;8.238;2024-02-21T03:10:51;7.90;99.90
12967;DHT22;6548;49.996;8.238;2024-02-21T03:13:17;8.00;99.90
12967;DHT22;6548;49.996;8.238;2024-02-21T03:15:42;8.00;99.90
12967;DHT22;6548;49.996;8.238;2024-02-21T03:18:08;8.00;99.90
12967;DHT22;6548;49.996;8.238;2024-02-21T03:20:33;8.00;99.90
12967;DHT22;6548;49.996;8.238;2024-02-21T03:22:59;8.00;99.90
12967;DHT22;6548;49.996;8.238;2024-02-21T03:25:24;8.00;99.90
12967;DHT22;6548;49.996;8.238;2024-02-21T03:27:50;8.00;99.90
12967;DHT22;6548;49.996;8.238;2024-02-21T03:30:17;8.10;99.90
12967;DHT22;6548;49.996;8.238;2024-02-21T03:32:42;8.00;99.90
12967;DHT22;6548;49.996;8.238;2024-02-21T03:35:08;8.00;99.90
12967;DHT22;6548;49.996;8.238;2024-02-21T03:37:33;8.00;99.90
12967;DHT22;6548;49.996;8.238;2024-02-21T03:39:59;8.00;99.90
12967;DHT22;6548;49.996;8.238;2024-02-21T03:42:24;8.00;99.90
12967;DHT22;6548;49.996;8.238;2024-02-21T03:44:50;8.00;99.90
12967;DHT22;6548;49.996;8.238;2024-02-21T06:17:11;7.60;99.90
12967;DHT22;6548;49.996;8.238;2024-02-21T06:19:40;7.50;99.90
12967;DHT22;6548;49.996;8.238;2024-02-21T06:22:06;7.60;99.90
12967;DHT22;6548;49.996;8.238;2024-02-21T06:24:35;7.50;99.90
12967;DHT22;6548;49.996;8.238;2024-02-21T06:27:02;7.50;99.90
12967;DHT22;6548;49.996;8.238;2024-02-21T06:29:28;7.50;99.90
12967;DHT22;6548;49.996;8.238;2024-02-21T06:31:53;7.50;99.90
12967;DHT22;6548;49.996;8.238;2024-02-21T06:34:19;7.60;99.90
12967;DHT22;6548;49.996;8.238;2024-02-21T06:36:45;7.60;99.90
12967;DHT22;6548;49.996;8.238;2024-02-21T06:39:10;7.50;99.90
12967;DHT22;6548;49.996;8.238;2024-02-21T06:41:37;7.50;99.90
12967;DHT22;6548;49.996;8.238;2024-02-21T06:44:03;7.50;99.90
12967;DHT22;6548;49.996;8.238;2024-02-21T06:46:29;7.50;99.90
12967;DHT22;6548;49.996;8.238;2024-02-21T06:48:55;7.50;99.90
12967;DHT22;6548;49.996;8.238;2024-02-21T06:51:24;7.50;99.90
12967;DHT22;6548;49.996;8.238;2024-02-21T06:53:50;7.60;99.90
12967;DHT22;6548;49.996;8.238;2024-02-21T06:56:15;7.60;99.90
12967;DHT22;6548;49.996;8.238;2024-02-21T06:58:41;7.60;99.90
12967;DHT22;6548;49.996;8.238;2024-02-21T07:01:07;7.60;99.90
12967;DHT22;6548;49.996;8.238;2024-02-21T07:03:32;7.60;99.90
12967;DHT22;6548;49.996;8.238;2024-02-21T07:05:58;7.60;99.90
12967;DHT22;6548;49.996;8.238;2024-02-21T07:08:23;7.60;99.90
12967;DHT22;6548;49.996;8.238;2024-02-21T07:10:49;7.70;99.90
12967;DHT22;6548;49.996;8.238;2024-02-21T07:13:14;7.70;99.90
12967;DHT22;6548;49.996;8.238;2024-02-21T07:15:41;7.70;99.90
12967;DHT22;6548;49.996;8.238;2024-02-21T07:18:07;7.70;99.90
12967;DHT22;6548;49.996;8.238;2024-02-21T07:20:32;7.80;99.90
12967;DHT22;6548;49.996;8.238;2024-02-21T07:23:03;7.80;99.90
12967;DHT22;6548;49.996;8.238;2024-02-21T07:25:29;7.90;99.90
12967;DHT22;6548;49.996;8.238;2024-02-21T07:27:54;7.90;99.90
12967;DHT22;6548;49.996;8.238;2024-02-21T07:30:20;8.00;99.90
12967;DHT22;6548;49.996;8.238;2024-02-21T07:32:48;8.00;99.90
12967;DHT22;6548;49.996;8.238;2024-02-21T07:35:14;8.00;99.90
12967;DHT22;6548;49.996;8.238;2024-02-21T07:37:39;8.00;99.90
12967;DHT22;6548;49.996;8.238;2024-02-21T07:40:06;8.10;99.90
12967;DHT22;6548;49.996;8.238;2024-02-21T07:42:31;8.20;99.90
12967;DHT22;6548;49.996;8.238;2024-02-21T07:44:57;8.40;99.90
12967;DHT22;6548;49.996;8.238;2024-02-21T07:47:22;8.50;99.90
12967;DHT22;6548;49.996;8.238;2024-02-21T07:49:48;8.40;99.90
12967;DHT22;6548;49.996;8.238;2024-02-21T07:52:14;8.40;99.90
12967;DHT22;6548;49.996;8.238;2024-02-21T07:54:40;8.40;99.90
12967;DHT22;6548;49.996;8.238;2024-02-21T07:57:07;8.30;99.90
12967;DHT22;6548;49.996;8.238;2024-02-21T07:59:32;8.30;99.90
12967;DHT22;6548;49.996;8.238;2024-02-21T08:01:58;8.20;99.90
12967;DHT22;6548;49.996;8.238;2024-02-21T08:04:24;8.30;99.90
12967;DHT22;6548;49.996;8.238;2024-02-21T08:06:53;8.30;99.90
12967;DHT22;6548;49.996;8.238;2024-02-21T08:09:19;8.30;99.90
12967;DHT22;6548;49.996;8.238;2024-02-21T08:11:44;8.30;99.90
12967;DHT22;6548;49.996;8.238;2024-02-21T08:14:10;8.30;99.90
12967;DHT22;6548;49.996;8.238;2024-02-21T08:16:35;8.40;99.90
12967;DHT22;6548;49.996;8.238;2024-02-21T08:19:01;8.30;99.90
12967;DHT22;6548;49.996;8.238;2024-02-21T08:21:28;8.30;99.90
12967;DHT22;6548;49.996;8.238;2024-02-21T08:23:54;8.30;99.90
12967;DHT22;6548;49.996;8.238;2024-02-21T08:26:20;8.40;99.90
12967;DHT22;6548;49.996;8.238;2024-02-21T08:28:45;8.40;99.90
12967;DHT22;6548;49.996;8.238;2024-02-21T08:31:11;8.40;99.90
12967;DHT22;6548;49.996;8.238;2024-02-21T08:33:36;8.50;99.90
12967;DHT22;6548;49.996;8.238;2024-02-21T08:36:02;8.40;99.90
12967;DHT22;6548;49.996;8.238;2024-02-21T08:38:28;8.50;99.90
12967;DHT22;6548;49.996;8.238;2024-02-21T08:40:54;8.40;99.90
12967;DHT22;6548;49.996;8.238;2024-02-21T08:43:19;8.50;99.90
12967;DHT22;6548;49.996;8.238;2024-02-21T08:45:45;8.60;99.90
12967;DHT22;6548;49.996;8.238;2024-02-21T08:48:10;8.70;99.90
12967;DHT22;6548;49.996;8.238;2024-02-21T08:50:36;8.70;99.90
12967;DHT22;6548;49.996;8.238;2024-02-21T08:53:01;8.70;99.90
12967;DHT22;6548;49.996;8.238;2024-02-21T08:55:27;8.80;99.90
12967;DHT22;6548;49.996;8.238;2024-02-21T08:57:52;8.90;99.90
12967;DHT22;6548;49.996;8.238;2024-02-21T09:00:18;8.90;99.90
12967;DHT22;6548;49.996;8.238;2024-02-21T09:02:46;9.00;99.90
12967;DHT22;6548;49.996;8.238;2024-02-21T09:05:12;9.20;99.90
12967;DHT22;6548;49.996;8.238;2024-02-21T09:07:37;9.40;99.90
12967;DHT22;6548;49.996;8.238;2024-02-21T09:10:03;9.50;99.90
12967;DHT22;6548;49.996;8.238;2024-02-21T09:12:29;9.40;99.90
12967;DHT22;6548;49.996;8.238;2024-02-21T09:14:55;9.30;99.90
12967;DHT22;6548;49.996;8.238;2024-02-21T09:17:20;9.40;99.90
12967;DHT22;6548;49.996;8.238;2024-02-21T09:19:47;9.30;99.90
12967;DHT22;6548;49.996;8.238;2024-02-21T09:22:13;9.30;99.90
12967;DHT22;6548;49.996;8.238;2024-02-21T09:24:38;9.30;99.90
12967;DHT22;6548;49.996;8.238;2024-02-21T09:27:04;9.30;99.90
12967;DHT22;6548;49.996;8.238;2024-02-21T09:29:31;9.30;99.90
12967;DHT22;6548;49.996;8.238;2024-02-21T09:31:58;9.50;99.90
12967;DHT22;6548;49.996;8.238;2024-02-21T09:34:24;9.70;99.90
12967;DHT22;6548;49.996;8.238;2024-02-21T09:36:49;9.80;99.90
12967;DHT22;6548;49.996;8.238;2024-02-21T09:39:15;9.80;99.90
12967;DHT22;6548;49.996;8.238;2024-02-21T09:41:50;9.80;99.90
12967;DHT22;6548;49.996;8.238;2024-02-21T09:44:19;9.80;99.90
12967;DHT22;6548;49.996;8.238;2024-02-21T09:49:40;10.30;99.90
12967;DHT22;6548;49.996;8.238;2024-02-21T09:52:08;10.10;99.90
12967;DHT22;6548;49.996;8.238;2024-02-21T09:54:34;10.00;99.90
12967;DHT22;6548;49.996;8.238;2024-02-21T09:57:01;10.00;99.90
12967;DHT22;6548;49.996;8.238;2024-02-21T09:59:32;10.20;99.90
12967;DHT22;6548;49.996;8.238;2024-02-21T10:01:58;9.90;99.90
12967;DHT22;6548;49.996;8.238;2024-02-21T10:04:27;9.80;99.90
12967;DHT22;6548;49.996;8.238;2024-02-21T10:06:53;9.70;99.90
12967;DHT22;6548;49.996;8.238;2024-02-21T10:09:23;9.90;99.90
12967;DHT22;6548;49.996;8.238;2024-02-21T10:11:50;10.40;99.90
12967;DHT22;6548;49.996;8.238;2024-02-21T10:14:16;10.50;99.90
12967;DHT22;6548;49.996;8.238;2024-02-21T10:16:43;10.50;99.90
12967;DHT22;6548;49.996;8.238;2024-02-21T10:19:19;10.20;99.90
12967;DHT22;6548;49.996;8.238;2024-02-21T10:22:02;10.10;99.90
12967;DHT22;6548;49.996;8.238;2024-02-21T10:24:29;10.30;99.90
12967;DHT22;6548;49.996;8.238;2024-02-21T10:27:08;10.30;99.90
12967;DHT22;6548;49.996;8.238;2024-02-21T10:29:38;10.80;99.90
12967;DHT22;6548;49.996;8.238;2024-02-21T10:32:10;11.00;99.90
12967;DHT22;6548;49.996;8.238;2024-02-21T10:34:37;11.10;99.90
12967;DHT22;6548;49.996;8.238;2024-02-21T10:37:04;11.20;99.90
12967;DHT22;6548;49.996;8.238;2024-02-21T10:39:38;11.30;99.90
12967;DHT22;6548;49.996;8.238;2024-02-21T10:42:04;11.70;99.90
12967;DHT22;6548;49.996;8.238;2024-02-21T10:44:32;11.50;99.90
12967;DHT22;6548;49.996;8.238;2024-02-21T10:46:58;11.70;99.90
12967;DHT22;6548;49.996;8.238;2024-02-21T10:49:26;11.50;99.90
12967;DHT22;6548;49.996;8.238;2024-02-21T10:52:06;11.50;99.90
12967;DHT22;6548;49.996;8.238;2024-02-21T10:54:48;11.80;99.90
12967;DHT22;6548;49.996;8.238;2024-02-21T10:57:17;12.00;99.90
12967;DHT22;6548;49.996;8.238;2024-02-21T10:59:44;12.10;99.90
12967;DHT22;6548;49.996;8.238;2024-02-21T11:02:10;12.20;99.90
12967;DHT22;6548;49.996;8.238;2024-02-21T11:04:36;11.90;99.90
12967;DHT22;6548;49.996;8.238;2024-02-21T11:07:06;12.10;99.90
12967;DHT22;6548;49.996;8.238;2024-02-21T11:09:32;11.90;99.90
12967;DHT22;6548;49.996;8.238;2024-02-21T11:12:01;11.90;99.90
12967;DHT22;6548;49.996;8.238;2024-02-21T11:14:29;11.80;99.90
12967;DHT22;6548;49.996;8.238;2024-02-21T11:16:58;11.30;99.90
12967;DHT22;6548;49.996;8.238;2024-02-21T11:19:27;11.00;99.90
12967;DHT22;6548;49.996;8.238;2024-02-21T11:21:57;10.90;99.90
12967;DHT22;6548;49.996;8.238;2024-02-21T11:24:30;10.90;99.90
12967;DHT22;6548;49.996;8.238;2024-02-21T11:27:09;11.10;99.90
12967;DHT22;6548;49.996;8.238;2024-02-21T11:29:40;11.30;99.90
12967;DHT22;6548;49.996;8.238;2024-02-21T11:32:10;11.10;99.90
12967;DHT22;6548;49.996;8.238;2024-02-21T11:34:36;11.10;99.90
12967;DHT22;6548;49.996;8.238;2024-02-21T11:37:02;11.40;99.90
12967;DHT22;6548;49.996;8.238;2024-02-21T11:39:37;11.30;99.90
12967;DHT22;6548;49.996;8.238;2024-02-21T11:42:05;11.20;99.90
12967;DHT22;6548;49.996;8.238;2024-02-21T11:44:32;11.10;99.90
12967;DHT22;6548;49.996;8.238;2024-02-21T11:46:58;11.20;99.90
12967;DHT22;6548;49.996;8.238;2024-02-21T11:49:28;11.50;99.90
12967;DHT22;6548;49.996;8.238;2024-02-21T11:52:01;11.60;99.90
12967;DHT22;6548;49.996;8.238;2024-02-21T11:54:32;11.50;99.90
12967;DHT22;6548;49.996;8.238;2024-02-21T11:56:58;11.60;99.90
12967;DHT22;6548;49.996;8.238;2024-02-21T11:59:24;11.40;99.90
12967;DHT22;6548;49.996;8.238;2024-02-21T12:01:49;11.20;99.90
12967;DHT22;6548;49.996;8.238;2024-02-21T12:04:18;11.50;99.90
12967;DHT22;6548;49.996;8.238;2024-02-21T12:06:45;11.50;99.90
12967;DHT22;6548;49.996;8.238;2024-02-21T12:09:14;11.20;99.90
12967;DHT22;6548;49.996;8.238;2024-02-21T12:11:41;11.20;99.90
12967;DHT22;6548;49.996;8.238;2024-02-21T12:14:07;11.30;99.90
12967;DHT22;6548;49.996;8.238;2024-02-21T12:16:34;11.30;99.90
12967;DHT22;6548;49.996;8.238;2024-02-21T12:19:01;11.20;99.90
12967;DHT22;6548;49.996;8.238;2024-02-21T12:21:33;11.30;99.90
12967;DHT22;6548;49.996;8.238;2024-02-21T12:24:20;11.10;99.90
12967;DHT22;6548;49.996;8.238;2024-02-21T12:26:46;11.10;99.90
12967;DHT22;6548;49.996;8.238;2024-02-21T12:29:12;11.20;99.90
12967;DHT22;6548;49.996;8.238;2024-02-21T12:31:38;11.30;99.90
12967;DHT22;6548;49.996;8.238;2024-02-21T12:34:03;11.10;99.90
12967;DHT22;6548;49.996;8.238;2024-02-21T12:36:33;10.90;99.90
12967;DHT22;6548;49.996;8.238;2024-02-21T12:39:01;10.90;99.90
12967;DHT22;6548;49.996;8.238;2024-02-21T12:41:28;10.90;99.90
12967;DHT22;6548;49.996;8.238;2024-02-21T12:43:55;10.70;99.90
12967;DHT22;6548;49.996;8.238;2024-02-21T12:46:22;10.70;99.90
12967;DHT22;6548;49.996;8.238;2024-02-21T12:48:47;10.50;99.90
12967;DHT22;6548;49.996;8.238;2024-02-21T12:51:13;10.50;99.90
12967;DHT22;6548;49.996;8.238;2024-02-21T12:53:39;10.60;99.90
12967;DHT22;6548;49.996;8.238;2024-02-21T12:56:05;10.70;99.90
12967;DHT22;6548;49.996;8.238;2024-02-21T12:58:33;10.70;99.90
12967;DHT22;6548;49.996;8.238;2024-02-21T13:00:58;10.70;99.90
12967;DHT22;6548;49.996;8.238;2024-02-21T13:03:24;10.70;99.90
12967;DHT22;6548;49.996;8.238;2024-02-21T13:05:49;10.70;99.90
12967;DHT22;6548;49.996;8.238;2024-02-21T13:08:15;10.80;99.90
12967;DHT22;6548;49.996;8.238;2024-02-21T13:10:40;10.80;99.90
12967;DHT22;6548;49.996;8.238;2024-02-21T13:13:06;10.80;99.90
12967;DHT22;6548;49.996;8.238;2024-02-21T13:15:31;10.80;99.90
12967;DHT22;6548;49.996;8.238;2024-02-21T13:17:57;10.70;99.90
12967;DHT22;6548;49.996;8.238;2024-02-21T13:20:23;10.70;99.90
12967;DHT22;6548;49.996;8.238;2024-02-21T13:22:49;10.80;99.90
12967;DHT22;6548;49.996;8.238;2024-02-21T13:25:15;10.80;99.90
12967;DHT22;6548;49.996;8.238;2024-02-21T13:27:43;10.90;99.90
12967;DHT22;6548;49.996;8.238;2024-02-21T13:30:10;11.00;99.90
12967;DHT22;6548;49.996;8.238;2024-02-21T13:32:35;10.90;99.90
12967;DHT22;6548;49.996;8.238;2024-02-21T13:35:01;11.10;99.90
12967;DHT22;6548;49.996;8.238;2024-02-21T13:37:27;11.10;99.90
12967;DHT22;6548;49.996;8.238;2024-02-21T13:39:53;11.10;99.90
12967;DHT22;6548;49.996;8.238;2024-02-21T13:42:20;11.20;99.90
12967;DHT22;6548;49.996;8.238;2024-02-21T13:44:46;11.20;99.90
12967;DHT22;6548;49.996;8.238;2024-02-21T13:47:14;11.40;99.90
12967;DHT22;6548;49.996;8.238;2024-02-21T13:49:40;11.30;99.90
12967;DHT22;6548;49.996;8.238;2024-02-21T13:52:06;11.40;99.90
12967;DHT22;6548;49.996;8.238;2024-02-21T13:54:32;11.20;99.90
12967;DHT22;6548;49.996;8.238;2024-02-21T13:56:57;11.10;99.90
12967;DHT22;6548;49.996;8.238;2024-02-21T13:59:23;11.00;99.90
12967;DHT22;6548;49.996;8.238;2024-02-21T14:01:48;10.90;99.90
12967;DHT22;6548;49.996;8.238;2024-02-21T14:04:14;10.90;99.90
12967;DHT22;6548;49.996;8.238;2024-02-21T14:06:39;10.90;99.90
12967;DHT22;6548;49.996;8.238;2024-02-21T14:09:09;10.90;99.90
12967;DHT22;6548;49.996;8.238;2024-02-21T14:11:35;10.80;99.90
12967;DHT22;6548;49.996;8.238;2024-02-21T14:14:01;10.80;99.90
12967;DHT22;6548;49.996;8.238;2024-02-21T14:16:26;10.90;99.90
12967;DHT22;6548;49.996;8.238;2024-02-21T14:18:52;10.90;99.90
12967;DHT22;6548;49.996;8.238;2024-02-21T14:21:19;10.90;99.90
12967;DHT22;6548;49.996;8.238;2024-02-21T14:23:45;10.90;99.90
12967;DHT22;6548;49.996;8.238;2024-02-21T14:26:11;11.00;99.90
12967;DHT22;6548;49.996;8.238;2024-02-21T14:28:37;11.10;99.90
12967;DHT22;6548;49.996;8.238;2024-02-21T14:31:03;11.10;99.90
12967;DHT22;6548;49.996;8.238;2024-02-21T14:33:31;11.10;99.90
12967;DHT22;6548;49.996;8.238;2024-02-21T14:35:56;11.20;99.90
12967;DHT22;6548;49.996;8.238;2024-02-21T14:38:22;11.30;99.90
12967;DHT22;6548;49.996;8.238;2024-02-21T14:40:47;11.20;99.90
12967;DHT22;6548;49.996;8.238;2024-02-21T14:43:13;11.20;99.90
12967;DHT22;6548;49.996;8.238;2024-02-21T14:45:39;11.10;99.90
12967;DHT22;6548;49.996;8.238;2024-02-21T14:48:05;11.20;99.90
12967;DHT22;6548;49.996;8.238;2024-02-21T14:50:31;11.30;99.90
12967;DHT22;6548;49.996;8.238;2024-02-21T14:52:56;11.20;99.90
12967;DHT22;6548;49.996;8.238;2024-02-21T14:55:22;11.10;99.90
12967;DHT22;6548;49.996;8.238;2024-02-21T14:57:48;11.20;99.90
12967;DHT22;6548;49.996;8.238;2024-02-21T15:00:14;11.10;99.90
12967;DHT22;6548;49.996;8.238;2024-02-21T15:02:39;11.10;99.90
12967;DHT22;6548;49.996;8.238;2024-02-21T15:05:05;11.10;99.90
12967;DHT22;6548;49.996;8.238;2024-02-21T15:07:32;11.10;99.90
12967;DHT22;6548;49.996;8.238;2024-02-21T15:09:57;11.10;99.90
12967;DHT22;6548;49.996;8.238;2024-02-21T15:12:23;11.10;99.90
12967;DHT22;6548;49.996;8.238;2024-02-21T15:14:49;11.00;99.90
12967;DHT22;6548;49.996;8.238;2024-02-21T15:17:15;11.00;99.90
12967;DHT22;6548;49.996;8.238;2024-02-21T15:19:40;11.00;99.90
12967;DHT22;6548;49.996;8.238;2024-02-21T15:22:09;11.10;99.90
12967;DHT22;6548;49.996;8.238;2024-02-21T15:24:37;11.10;99.90
12967;DHT22;6548;49.996;8.238;2024-02-21T15:27:03;11.10;99.90
12967;DHT22;6548;49.996;8.238;2024-02-21T15:29:28;11.10;99.90
12967;DHT22;6548;49.996;8.238;2024-02-21T15:31:54;11.10;99.90
12967;DHT22;6548;49.996;8.238;2024-02-21T15:34:19;11.10;99.90
12967;DHT22;6548;49.996;8.238;2024-02-21T15:36:45;11.10;99.90
12967;DHT22;6548;49.996;8.238;2024-02-21T15:39:10;11.00;99.90
12967;DHT22;6548;49.996;8.238;2024-02-21T15:41:36;11.00;99.90
12967;DHT22;6548;49.996;8.238;2024-02-21T15:44:02;11.00;99.90
12967;DHT22;6548;49.996;8.238;2024-02-21T15:46:29;11.00;99.90
12967;DHT22;6548;49.996;8.238;2024-02-21T15:48:56;10.90;99.90
12967;DHT22;6548;49.996;8.238;2024-02-21T15:51:22;10.90;99.90
12967;DHT22;6548;49.996;8.238;2024-02-21T15:53:48;10.90;99.90
12967;DHT22;6548;49.996;8.238;2024-02-21T15:56:14;10.90;99.90
12967;DHT22;6548;49.996;8.238;2024-02-21T15:58:40;11.00;99.90
12967;DHT22;6548;49.996;8.238;2024-02-21T16:01:06;10.90;99.90
12967;DHT22;6548;49.996;8.238;2024-02-21T16:03:32;10.90;99.90
12967;DHT22;6548;49.996;8.238;2024-02-21T16:05:58;10.90;99.90
12967;DHT22;6548;49.996;8.238;2024-02-21T16:08:23;10.90;99.90
12967;DHT22;6548;49.996;8.238;2024-02-21T16:10:49;10.80;99.90
12967;DHT22;6548;49.996;8.238;2024-02-21T16:13:16;10.80;99.90
12967;DHT22;6548;49.996;8.238;2024-02-21T16:15:41;10.80;99.90
12967;DHT22;6548;49.996;8.238;2024-02-21T16:18:08;10.80;99.90
12967;DHT22;6548;49.996;8.238;2024-02-21T16:20:33;10.80;99.90
12967;DHT22;6548;49.996;8.238;2024-02-21T16:22:59;10.70;99.90
12967;DHT22;6548;49.996;8.238;2024-02-21T16:25:28;10.70;99.90
12967;DHT22;6548;49.996;8.238;2024-02-21T16:27:54;10.60;99.90
12967;DHT22;6548;49.996;8.238;2024-02-21T16:30:20;10.60;99.90
12967;DHT22;6548;49.996;8.238;2024-02-21T16:32:48;10.50;99.90
12967;DHT22;6548;49.996;8.238;2024-02-21T16:35:14;10.50;99.90
12967;DHT22;6548;49.996;8.238;2024-02-21T16:37:40;10.40;99.90
12967;DHT22;6548;49.996;8.238;2024-02-21T16:40:06;10.40;99.90
12967;DHT22;6548;49.996;8.238;2024-02-21T16:42:31;10.40;99.90
12967;DHT22;6548;49.996;8.238;2024-02-21T16:44:57;10.40;99.90
12967;DHT22;6548;49.996;8.238;2024-02-21T16:47:22;10.40;99.90
12967;DHT22;6548;49.996;8.238;2024-02-21T16:49:50;10.30;99.90
12967;DHT22;6548;49.996;8.238;2024-02-21T16:52:15;10.30;99.90
12967;DHT22;6548;49.996;8.238;2024-02-21T16:54:41;10.20;99.90
12967;DHT22;6548;49.996;8.238;2024-02-21T16:57:07;10.20;99.90
12967;DHT22;6548;49.996;8.238;2024-02-21T16:59:32;10.20;99.90
12967;DHT22;6548;49.996;8.238;2024-02-21T17:01:58;10.20;99.90
12967;DHT22;6548;49.996;8.238;2024-02-21T17:04:27;10.10;99.90
12967;DHT22;6548;49.996;8.238;2024-02-21T17:06:53;10.10;99.90
12967;DHT22;6548;49.996;8.238;2024-02-21T17:09:19;10.10;99.90
12967;DHT22;6548;49.996;8.238;2024-02-21T17:11:45;10.10;99.90
12967;DHT22;6548;49.996;8.238;2024-02-21T17:14:11;10.10;99.90
12967;DHT22;6548;49.996;8.238;2024-02-21T17:16:36;10.00;99.90
12967;DHT22;6548;49.996;8.238;2024-02-21T17:19:03;10.00;99.90
12967;DHT22;6548;49.996;8.238;2024-02-21T17:21:31;10.00;99.90
12967;DHT22;6548;49.996;8.238;2024-02-21T17:23:57;10.00;99.90
12967;DHT22;6548;49.996;8.238;2024-02-21T17:26:22;10.00;99.90
12967;DHT22;6548;49.996;8.238;2024-02-21T17:28:49;9.90;99.90
12967;DHT22;6548;49.996;8.238;2024-02-21T17:31:16;9.90;99.90
12967;DHT22;6548;49.996;8.238;2024-02-21T17:33:42;10.00;99.90
12967;DHT22;6548;49.996;8.238;2024-02-21T17:36:08;10.00;99.90
12967;DHT22;6548;49.996;8.238;2024-02-21T17:38:34;10.00;99.90
12967;DHT22;6548;49.996;8.238;2024-02-21T17:41:00;9.90;99.90
12967;DHT22;6548;49.996;8.238;2024-02-21T17:43:25;9.90;99.90
12967;DHT22;6548;49.996;8.238;2024-02-21T17:45:54;9.80;99.90
12967;DHT22;6548;49.996;8.238;2024-02-21T17:48:22;9.90;99.90
12967;DHT22;6548;49.996;8.238;2024-02-21T17:50:47;9.90;99.90
12967;DHT22;6548;49.996;8.238;2024-02-21T17:53:13;9.90;99.90
12967;DHT22;6548;49.996;8.238;2024-02-21T17:55:38;9.90;99.90
12967;DHT22;6548;49.996;8.238;2024-02-21T17:58:04;9.80;99.90
12967;DHT22;6548;49.996;8.238;2024-02-21T18:00:31;9.80;99.90
12967;DHT22;6548;49.996;8.238;2024-02-21T18:02:57;9.80;99.90
12967;DHT22;6548;49.996;8.238;2024-02-21T18:05:23;9.80;99.90
12967;DHT22;6548;49.996;8.238;2024-02-21T18:07:49;9.80;99.90
12967;DHT22;6548;49.996;8.238;2024-02-21T18:10:15;9.80;99.90
12967;DHT22;6548;49.996;8.238;2024-02-21T18:12:41;9.80;99.90
12967;DHT22;6548;49.996;8.238;2024-02-21T18:15:07;9.70;99.90
12967;DHT22;6548;49.996;8.238;2024-02-21T18:17:33;9.70;99.90
12967;DHT22;6548;49.996;8.238;2024-02-21T18:20:00;9.70;99.90
12967;DHT22;6548;49.996;8.238;2024-02-21T18:22:28;9.70;99.90